Terminal Aerodrome Forecast
Issued by NWS Brownsville, TX

Current Version | Previous Version | Text Only | Print | Product List | Glossary On
Versions: 1 2 3 4 5 6 7 8 9 10 11 12 13 14 15 16
000
FTUS44 KBRO 190520
TAFBRO
TAF
KBRO 190520Z 1906/2006 35006KT P6SM VCSH BKN025 BKN050
      TEMPO 1906/1909 BKN035
     FM191000 32002KT P6SM -RA BKN015
     FM191200 32002KT 4SM RA BR BKN009
     FM191700 24004KT P6SM BKN015
     FM192200 24004KT P6SM SCT015 BKN035=

USA.gov is the U.S. government's official web portal to all federal, state and local government web resources and services.